Weather at Tatoi Airport

Public forecast

Using degrees Celsius for public forecast. Weather courtesy of forecast.io.

Closest aviation weather report (METAR) to Tatoi Airport

Closest report is Elefsis Airport, 11.1 nm (20.6 km) WSW. Retrieved 2021/05/10 08:20 UTC (18 minutes ago):

LGEL 100820Z 35015KT CAVOK 22/07 Q1019

Closest aviation forecast (TAF) to Tatoi Airport

Closest forecast is Elefsis Airport, 11.1 nm (20.6 km) WSW. Retrieved 2021/05/10 06:14 UTC (2 hours ago):

TAF LGEL 100500Z 1006/1106 35016KT 9999 FEW025 TEMPO 1006/1016 32016G26KT